createdAt,value
2019-06-10T00:01:08.629Z,63463.90
2019-06-10T00:03:35.000Z,63467.41
2019-06-10T00:06:03.701Z,63459.30
2019-06-10T00:08:30.825Z,63455.81
2019-06-10T00:10:58.223Z,63461.51
2019-06-10T00:13:24.510Z,63461.28
2019-06-10T00:15:51.504Z,63461.51
2019-06-10T00:18:35.489Z,63463.14
2019-06-10T00:20:46.115Z,63461.28
2019-06-10T00:23:12.674Z,63468.63
2019-06-10T00:25:41.330Z,63471.57
2019-06-10T00:28:07.477Z,63470.82
2019-06-10T00:30:34.722Z,63478.90
2019-06-10T00:33:03.159Z,63475.75
2019-06-10T00:35:31.404Z,63477.59
2019-06-10T00:37:57.117Z,63470.05
2019-06-10T00:40:23.235Z,63475.41
2019-06-10T00:42:50.717Z,63477.39
2019-06-10T00:45:18.110Z,63477.73
2019-06-10T00:47:44.543Z,63478.14
2019-06-10T00:50:14.318Z,63482.21
2019-06-10T00:52:42.168Z,63478.14
2019-06-10T00:55:07.823Z,63473.34
2019-06-10T00:57:34.752Z,63473.14
2019-06-10T01:00:03.310Z,63473.66
2019-06-10T01:02:28.915Z,63479.36
2019-06-10T01:04:55.055Z,63483.41
2019-06-10T01:07:21.819Z,63490.54
2019-06-10T01:09:48.121Z,63493.70
2019-06-10T01:12:14.936Z,63493.50
2019-06-10T01:14:41.317Z,63493.96
2019-06-10T01:17:07.574Z,63493.96
2019-06-10T01:19:33.719Z,63495.82
2019-06-10T01:22:01.534Z,63493.96
2019-06-10T01:24:27.895Z,63504.81
2019-06-10T01:26:54.022Z,63507.32
2019-06-10T01:29:21.084Z,63511.71
2019-06-10T01:31:47.384Z,63523.87
2019-06-10T01:34:15.029Z,63531.66
2019-06-10T01:36:41.244Z,63538.58
2019-06-10T01:39:07.464Z,63544.40
2019-06-10T01:41:33.592Z,63559.39
2019-06-10T01:44:01.730Z,63557.56
2019-06-10T01:46:27.848Z,63564.89
2019-06-10T01:48:53.979Z,63569.63
2019-06-10T01:51:21.335Z,63578.28
2019-06-10T01:53:48.134Z,63583.78
2019-06-10T01:56:15.834Z,63594.64
2019-06-10T01:58:42.511Z,63596.52
2019-06-10T02:01:15.450Z,63602.23
2019-06-10T02:03:41.648Z,63609.04
2019-06-10T02:06:08.821Z,63611.89
2019-06-10T02:08:35.195Z,63621.86
2019-06-10T02:11:01.423Z,63629.34
2019-06-10T02:13:28.949Z,63640.87
2019-06-10T02:15:56.771Z,63652.17
2019-06-10T02:18:23.111Z,63660.20
2019-06-10T02:20:51.349Z,63669.41
2019-06-10T02:23:18.634Z,63677.52
2019-06-10T02:25:44.881Z,63678.53
2019-06-10T02:28:12.816Z,63683.14
2019-06-10T02:30:49.821Z,63686.78
2019-06-10T02:33:07.104Z,63689.17
2019-06-10T02:35:44.029Z,63689.17
2019-06-10T02:38:03.514Z,63685.32
2019-06-10T02:40:33.105Z,63681.82
2019-06-10T02:42:58.417Z,63680.95
2019-06-10T02:45:32.601Z,63679.29
2019-06-10T02:47:53.463Z,63675.24
2019-06-10T02:50:39.669Z,63676.11
2019-06-10T02:53:06.012Z,63679.09
2019-06-10T02:55:35.062Z,63679.41
2019-06-10T02:58:00.283Z,63692.35
2019-06-10T03:00:36.858Z,63700.50
2019-06-10T03:02:54.552Z,63710.06
2019-06-10T03:05:26.215Z,63714.23
2019-06-10T03:07:48.720Z,63712.91
2019-06-10T03:10:16.363Z,63713.46
2019-06-10T03:12:42.984Z,63716.97
2019-06-10T03:15:09.306Z,63724.43
2019-06-10T03:17:35.537Z,63722.68
2019-06-10T03:20:02.442Z,63733.56
2019-06-10T03:22:28.613Z,63733.33
2019-06-10T03:24:54.803Z,63755.65
2019-06-10T03:27:23.154Z,63760.39
2019-06-10T03:29:48.981Z,63775.68
2019-06-10T03:32:17.654Z,63776.55
2019-06-10T03:34:47.468Z,63818.87
2019-06-10T03:37:12.925Z,63864.30
2019-06-10T03:39:39.203Z,63913.71
2019-06-10T03:42:05.323Z,63951.26
2019-06-10T03:44:33.045Z,63990.24
2019-06-10T03:46:59.384Z,64016.24
2019-06-10T03:49:27.084Z,64047.52
2019-06-10T03:51:53.644Z,64078.96
2019-06-10T03:54:22.741Z,64124.92
2019-06-10T03:56:47.928Z,64163.75
2019-06-10T03:59:14.161Z,64174.36
2019-06-10T04:01:42.486Z,64169.94
2019-06-10T04:04:08.307Z,64206.03
2019-06-10T04:06:34.423Z,64196.00
2019-06-10T04:09:02.637Z,64226.01
2019-06-10T04:11:31.511Z,64282.64
2019-06-10T04:13:56.875Z,64311.93
2019-06-10T04:16:25.126Z,64342.64
2019-06-10T04:18:53.305Z,64390.26
2019-06-10T04:21:22.033Z,64388.16
2019-06-10T04:23:47.807Z,64419.47
2019-06-10T04:26:14.037Z,64419.47
2019-06-10T04:28:40.154Z,64445.33
2019-06-10T04:31:08.241Z,64463.81
2019-06-10T04:33:34.377Z,64461.93
2019-06-10T04:36:02.767Z,64493.34
2019-06-10T04:38:29.108Z,64543.15
2019-06-10T04:40:55.488Z,64580.02
2019-06-10T04:43:23.394Z,64599.06
2019-06-10T04:45:49.683Z,64621.45
2019-06-10T04:48:15.819Z,64623.43
2019-06-10T04:50:45.668Z,64640.04
2019-06-10T04:53:09.972Z,64635.07
2019-06-10T04:55:36.212Z,64662.65
2019-06-10T04:58:02.609Z,64682.25
2019-06-10T05:00:30.005Z,64693.88
2019-06-10T05:02:56.635Z,64691.00
2019-06-10T05:05:24.995Z,64702.10
2019-06-10T05:07:52.054Z,64722.29
2019-06-10T05:10:19.205Z,64752.44
2019-06-10T05:12:45.407Z,64772.94
2019-06-10T05:15:12.559Z,64787.02
2019-06-10T05:17:38.878Z,64787.94
2019-06-10T05:20:09.275Z,64724.51
2019-06-10T05:22:35.491Z,64799.03
2019-06-10T05:25:02.643Z,64798.15
2019-06-10T05:27:30.132Z,64829.88
2019-06-10T05:29:57.193Z,64888.25
2019-06-10T05:32:25.924Z,64923.21
2019-06-10T05:34:52.783Z,64927.10
2019-06-10T05:37:19.226Z,64929.55
2019-06-10T05:39:45.445Z,64979.54
2019-06-10T05:42:12.822Z,64995.97
2019-06-10T05:44:39.115Z,64937.55
2019-06-10T05:47:05.255Z,64923.12
2019-06-10T05:49:34.301Z,64902.46
2019-06-10T05:52:01.914Z,64960.76
2019-06-10T05:54:27.618Z,64977.11
2019-06-10T05:56:55.022Z,65017.32
2019-06-10T05:59:23.020Z,65058.46
2019-06-10T06:01:49.486Z,65075.04
2019-06-10T06:04:15.717Z,65064.01
2019-06-10T06:06:45.123Z,65028.65
2019-06-10T06:09:12.989Z,64984.77
2019-06-10T06:11:39.572Z,64945.32
2019-06-10T06:14:05.701Z,64905.36
2019-06-10T06:16:33.076Z,64983.65
2019-06-10T06:19:00.006Z,65043.44
2019-06-10T06:21:31.441Z,65026.75
2019-06-10T06:23:54.380Z,65014.77
2019-06-10T06:26:23.262Z,64992.33
2019-06-10T06:28:48.650Z,64915.44
2019-06-10T06:31:14.875Z,64919.57
2019-06-10T06:33:43.224Z,64903.46
2019-06-10T06:36:09.240Z,64890.93
2019-06-10T06:38:37.198Z,64931.54
2019-06-10T06:41:03.637Z,64967.87
2019-06-10T06:43:32.832Z,65074.25
2019-06-10T06:45:58.020Z,65129.31
2019-06-10T06:48:24.146Z,65152.21
2019-06-10T06:51:03.728Z,65131.53
2019-06-10T06:53:28.564Z,65087.59
2019-06-10T06:55:46.651Z,65067.25
2019-06-10T06:58:12.875Z,65070.25
2019-06-10T07:00:57.371Z,65060.90
2019-06-10T07:03:07.261Z,65113.81
2019-06-10T07:05:35.514Z,65238.37
2019-06-10T07:08:02.408Z,65284.15
2019-06-10T07:10:32.853Z,65324.76
2019-06-10T07:13:02.908Z,65375.06
2019-06-10T07:15:46.548Z,65406.96
2019-06-10T07:18:09.460Z,65481.07
2019-06-10T07:20:37.610Z,65539.09
2019-06-10T07:23:03.729Z,65592.58
2019-06-10T07:25:34.143Z,65547.61
2019-06-10T07:27:58.027Z,65519.39
2019-06-10T07:30:24.273Z,65510.56
2019-06-10T07:32:52.688Z,65550.39
2019-06-10T07:35:18.438Z,65487.89
2019-06-10T07:37:46.045Z,65546.17
2019-06-10T07:40:13.029Z,65530.18
2019-06-10T07:42:39.364Z,65520.26
2019-06-10T07:45:05.698Z,65481.21
2019-06-10T07:47:32.650Z,65510.42
2019-06-10T07:49:59.882Z,65498.76
2019-06-10T07:52:26.009Z,65415.41
2019-06-10T07:54:52.945Z,65405.61
2019-06-10T07:57:19.413Z,65467.05
2019-06-10T07:59:45.986Z,65436.61
2019-06-10T08:02:12.565Z,65426.02
2019-06-10T08:04:39.973Z,65466.15
2019-06-10T08:07:06.901Z,65531.11
2019-06-10T08:09:33.464Z,65577.42
2019-06-10T08:12:03.501Z,65596.72
2019-06-10T08:14:28.423Z,65633.83
2019-06-10T08:16:54.644Z,65674.03
2019-06-10T08:19:31.678Z,65707.88
2019-06-10T08:21:49.854Z,65714.11
2019-06-10T08:24:16.150Z,65658.39
2019-06-10T08:26:44.279Z,65641.88
2019-06-10T08:29:12.715Z,65574.08
2019-06-10T08:31:38.843Z,65501.32
2019-06-10T08:34:05.033Z,65433.27
2019-06-10T08:36:33.294Z,65317.12
2019-06-10T08:38:59.305Z,65209.75
2019-06-10T08:41:25.460Z,65146.77
2019-06-10T08:43:52.871Z,65047.57
2019-06-10T08:46:19.427Z,65019.44
2019-06-10T08:48:47.681Z,64979.22
2019-06-10T08:51:13.825Z,64921.55
2019-06-10T08:53:44.710Z,64891.45
2019-06-10T08:56:08.459Z,64871.72
2019-06-10T08:58:34.622Z,64853.16
2019-06-10T09:01:02.314Z,64898.24
2019-06-10T09:03:28.698Z,64907.35
2019-06-10T09:05:57.718Z,64997.00
2019-06-10T09:08:23.959Z,65114.28
2019-06-10T09:10:52.543Z,65106.94
2019-06-10T09:13:18.347Z,65069.37
2019-06-10T09:15:50.850Z,65030.77
2019-06-10T09:18:14.962Z,65008.11
2019-06-10T09:20:44.957Z,64967.34
2019-06-10T09:23:19.221Z,64931.11
2019-06-10T09:25:37.045Z,64900.69
2019-06-10T09:28:03.391Z,64893.79
2019-06-10T09:30:29.849Z,64886.48
2019-06-10T09:32:58.734Z,64870.38
2019-06-10T09:35:24.539Z,64841.85
2019-06-10T09:37:53.330Z,64826.55
2019-06-10T09:40:19.310Z,64846.85
2019-06-10T09:42:48.137Z,64855.71
2019-06-10T09:45:14.076Z,64837.18
2019-06-10T09:47:46.732Z,64824.54
2019-06-10T09:50:12.251Z,64811.23
2019-06-10T09:52:38.599Z,64820.21
2019-06-10T09:55:05.937Z,64919.57
2019-06-10T09:57:32.302Z,64904.80
2019-06-10T09:59:58.519Z,64901.25
2019-06-10T10:02:24.755Z,64850.61
2019-06-10T10:04:57.203Z,64831.87
2019-06-10T10:07:19.848Z,64805.34
2019-06-10T10:09:49.990Z,64783.71
2019-06-10T10:12:14.638Z,64781.92
2019-06-10T10:14:44.360Z,64841.75
2019-06-10T10:17:08.916Z,64929.21
2019-06-10T10:19:35.037Z,64963.98
2019-06-10T10:22:03.016Z,64966.44
2019-06-10T10:24:29.425Z,65004.44
2019-06-10T10:26:57.990Z,64939.45
2019-06-10T10:29:23.822Z,64846.97
2019-06-10T10:31:52.334Z,64798.25
2019-06-10T10:34:18.180Z,64766.41
2019-06-10T10:36:46.452Z,64764.96
2019-06-10T10:39:13.930Z,64760.54
2019-06-10T10:41:43.187Z,64747.87
2019-06-10T10:44:08.557Z,64750.88
2019-06-10T10:46:34.710Z,64759.43
2019-06-10T10:49:02.694Z,64821.21
2019-06-10T10:51:28.983Z,64868.93
2019-06-10T10:54:18.788Z,64883.37
2019-06-10T10:56:23.655Z,64918.67
2019-06-10T10:58:52.033Z,64991.54
2019-06-10T11:01:17.956Z,65057.25
2019-06-10T11:03:47.359Z,65151.54
2019-06-10T11:06:13.000Z,65231.13
2019-06-10T11:08:39.490Z,65283.57
2019-06-10T11:11:06.157Z,65217.45
2019-06-10T11:13:37.540Z,65185.16
2019-06-10T11:16:04.581Z,65230.80
2019-06-10T11:18:30.831Z,65284.15
2019-06-10T11:21:01.508Z,65362.80
2019-06-10T11:23:25.213Z,65391.21
2019-06-10T11:25:56.560Z,65384.44
2019-06-10T11:28:22.650Z,65369.71
2019-06-10T11:30:49.422Z,65343.38
2019-06-10T11:33:15.980Z,65320.68
2019-06-10T11:35:42.839Z,65285.92
2019-06-10T11:38:09.204Z,65252.97
2019-06-10T11:40:35.454Z,65229.36
2019-06-10T11:43:01.739Z,65237.80
2019-06-10T11:45:28.020Z,65275.10
2019-06-10T11:47:56.628Z,65306.99
2019-06-10T11:50:23.304Z,65330.25
2019-06-10T11:52:53.579Z,65346.61
2019-06-10T11:55:19.332Z,65363.59
2019-06-10T11:57:45.811Z,65401.23
2019-06-10T12:00:17.325Z,65349.41
2019-06-10T12:02:42.610Z,65371.25
2019-06-10T12:05:12.817Z,65334.13
2019-06-10T12:07:37.981Z,65347.65
2019-06-10T12:10:06.951Z,65371.05
2019-06-10T12:12:33.870Z,65364.37
2019-06-10T12:15:01.478Z,65343.52
2019-06-10T12:17:41.617Z,65317.57
2019-06-10T12:19:59.399Z,65286.71
2019-06-10T12:22:24.056Z,65285.92
2019-06-10T12:24:50.356Z,65298.27
2019-06-10T12:27:16.948Z,65325.54
2019-06-10T12:29:43.190Z,65360.80
2019-06-10T12:32:09.421Z,65399.80
2019-06-10T12:34:35.661Z,65334.04
2019-06-10T12:37:10.330Z,65335.81
2019-06-10T12:39:30.032Z,65327.96
2019-06-10T12:41:58.323Z,65312.32
2019-06-10T12:44:24.407Z,65352.42
2019-06-10T12:46:54.050Z,65330.14
2019-06-10T12:49:18.861Z,65335.72
2019-06-10T12:51:45.109Z,65337.85
2019-06-10T12:54:13.150Z,65327.13
2019-06-10T12:56:39.534Z,65320.03
2019-06-10T12:59:09.767Z,65281.71
2019-06-10T13:01:34.519Z,65284.02
2019-06-10T13:06:29.178Z,65273.42
2019-06-10T13:08:56.402Z,65309.54
2019-06-10T13:11:23.906Z,65344.17
2019-06-10T13:13:50.122Z,65380.40
2019-06-10T13:16:16.355Z,65406.82
2019-06-10T13:18:42.483Z,65380.63
2019-06-10T13:21:13.809Z,65371.72
2019-06-10T13:23:36.856Z,65350.52
2019-06-10T13:26:10.170Z,65340.72
2019-06-10T13:28:32.464Z,65304.21
2019-06-10T13:30:59.213Z,65281.15
2019-06-10T13:33:25.468Z,65277.23
2019-06-10T13:35:53.786Z,65291.73
2019-06-10T13:38:19.751Z,65286.57
2019-06-10T13:40:45.989Z,65236.59
2019-06-10T13:43:13.027Z,65196.94
2019-06-10T13:45:39.468Z,65146.99
2019-06-10T13:48:09.912Z,65106.71
2019-06-10T13:50:33.957Z,65123.63
2019-06-10T13:53:01.116Z,65142.56
2019-06-10T13:55:28.164Z,65151.45
2019-06-10T13:57:54.419Z,65140.10
2019-06-10T14:00:22.893Z,65157.34
2019-06-10T14:02:49.599Z,65158.77
2019-06-10T14:05:18.234Z,65150.89
2019-06-10T14:07:44.315Z,65131.53
2019-06-10T14:10:17.603Z,65131.19
2019-06-10T14:12:39.167Z,65146.21
2019-06-10T14:15:08.058Z,65159.46
2019-06-10T14:17:34.044Z,65147.11
2019-06-10T14:20:01.663Z,65102.26
2019-06-10T14:22:28.019Z,65077.34
2019-06-10T14:24:54.279Z,65048.69
2019-06-10T14:27:21.577Z,65055.02
2019-06-10T14:29:48.694Z,65087.49
2019-06-10T14:32:15.795Z,65079.15
2019-06-10T14:34:42.153Z,65075.59
2019-06-10T14:37:09.767Z,65047.79
2019-06-10T14:39:36.989Z,65020.78
2019-06-10T14:42:05.279Z,65003.88
2019-06-10T14:44:32.604Z,64984.77
2019-06-10T14:46:59.676Z,64964.99
2019-06-10T14:49:27.165Z,64950.77
2019-06-10T14:51:53.918Z,64935.65
2019-06-10T14:54:22.722Z,64909.37
2019-06-10T14:56:53.683Z,64879.92
2019-06-10T14:59:18.101Z,64868.37
2019-06-10T15:01:44.406Z,64855.71
2019-06-10T15:04:12.595Z,64852.85
2019-06-10T15:06:38.799Z,64828.76
2019-06-10T15:09:07.449Z,64802.69
2019-06-10T15:11:34.164Z,64777.94
2019-06-10T15:14:02.690Z,64755.76
2019-06-10T15:16:28.336Z,64741.03
2019-06-10T15:19:02.612Z,64737.25
2019-06-10T15:21:23.200Z,64727.28
2019-06-10T15:23:52.185Z,64707.66
2019-06-10T15:26:17.822Z,64697.55
2019-06-10T15:28:43.912Z,64695.22
2019-06-10T15:31:12.946Z,64694.22
2019-06-10T15:33:38.216Z,64690.80
2019-06-10T15:36:04.450Z,64673.05
2019-06-10T15:38:32.776Z,64652.79
2019-06-10T15:40:58.711Z,64643.82
2019-06-10T15:43:24.972Z,64623.34
2019-06-10T15:45:52.887Z,64611.48
2019-06-10T15:48:21.903Z,64597.07
2019-06-10T15:50:47.294Z,64583.89
2019-06-10T15:53:15.958Z,64573.59
2019-06-10T15:56:09.086Z,64565.39
2019-06-10T15:58:09.597Z,64560.09
2019-06-10T16:00:35.729Z,64553.77
2019-06-10T16:03:02.463Z,64551.67
2019-06-10T16:05:28.956Z,64547.02
2019-06-10T16:07:55.191Z,64537.94
2019-06-10T16:10:27.354Z,64530.65
2019-06-10T16:12:49.507Z,64524.57
2019-06-10T16:15:18.176Z,64517.70
2019-06-10T16:17:45.066Z,64518.71
2019-06-10T16:20:13.037Z,64513.27
2019-06-10T16:22:39.636Z,64513.72
2019-06-10T16:25:05.984Z,64495.54
2019-06-10T16:27:44.500Z,64493.66
2019-06-10T16:30:02.595Z,64492.34
2019-06-10T16:32:28.281Z,64490.14
2019-06-10T16:34:54.495Z,64484.16
2019-06-10T16:37:23.797Z,64485.04
2019-06-10T16:39:48.752Z,64487.70
2019-06-10T16:42:15.500Z,64477.85
2019-06-10T16:44:42.343Z,64473.32
2019-06-10T16:47:08.531Z,64464.35
2019-06-10T16:49:34.778Z,64451.96
2019-06-10T16:52:02.840Z,64446.00
2019-06-10T16:54:29.955Z,64444.57
2019-06-10T16:56:56.189Z,64438.38
2019-06-10T16:59:24.198Z,64428.54
2019-06-10T17:01:53.059Z,64424.11
2019-06-10T17:04:19.267Z,64427.32
2019-06-10T17:06:45.631Z,64424.22
2019-06-10T17:09:13.487Z,64419.90
2019-06-10T17:11:42.379Z,64420.91
2019-06-10T17:14:07.947Z,64419.69
2019-06-10T17:16:34.199Z,64413.16
2019-06-10T17:19:02.400Z,64403.41
2019-06-10T17:21:31.727Z,64397.77
2019-06-10T17:23:56.737Z,64378.45
2019-06-10T17:26:29.729Z,64378.55
2019-06-10T17:28:52.141Z,64374.46
2019-06-10T17:31:19.791Z,64373.57
2019-06-10T17:33:46.612Z,64368.05
2019-06-10T17:36:12.850Z,64359.86
2019-06-10T17:38:38.996Z,64353.45
2019-06-10T17:41:05.251Z,64348.60
2019-06-10T17:43:34.085Z,64347.28
2019-06-10T17:45:59.549Z,64342.30
2019-06-10T17:48:27.360Z,64328.04
2019-06-10T17:50:53.948Z,64320.33
2019-06-10T17:53:20.221Z,64314.45
2019-06-10T17:55:46.448Z,64306.84
2019-06-10T17:58:13.142Z,64302.42
2019-06-10T18:00:39.450Z,64297.12
2019-06-10T18:03:07.612Z,64290.25
2019-06-10T18:05:33.763Z,64287.94
2019-06-10T18:08:02.156Z,64286.27
2019-06-10T18:10:28.056Z,64284.73
2019-06-10T18:12:54.201Z,64280.21
2019-06-10T18:15:22.219Z,64269.51
2019-06-10T18:17:48.601Z,64272.37
2019-06-10T18:20:16.539Z,64259.23
2019-06-10T18:22:42.792Z,64248.75
2019-06-10T18:25:09.133Z,64239.70
2019-06-10T18:27:36.697Z,64242.00
2019-06-10T18:30:10.762Z,64229.09
2019-06-10T18:32:35.988Z,64212.09
2019-06-10T18:35:02.918Z,64213.97
2019-06-10T18:37:30.484Z,64204.15
2019-06-10T18:39:57.365Z,64199.52
2019-06-10T18:42:23.685Z,64192.45
2019-06-10T18:44:52.162Z,64192.45
2019-06-10T18:47:17.979Z,64187.82
2019-06-10T18:49:44.128Z,64188.04
2019-06-10T18:52:12.531Z,64182.08
2019-06-10T18:54:38.531Z,64169.81
2019-06-10T18:57:04.784Z,64169.81
2019-06-10T18:59:33.126Z,64168.49
2019-06-10T19:01:59.228Z,64149.20
2019-06-10T19:04:25.471Z,64149.20
2019-06-10T19:06:52.805Z,64142.13
2019-06-10T19:09:19.147Z,64127.25
2019-06-10T19:11:45.390Z,64128.57
2019-06-10T19:14:12.800Z,64128.57
2019-06-10T19:16:40.189Z,64120.85
2019-06-10T19:19:06.468Z,64112.81
2019-06-10T19:21:32.709Z,64102.55
2019-06-10T19:23:58.932Z,64092.18
2019-06-10T19:26:25.171Z,64085.02
2019-06-10T19:28:53.343Z,64076.64
2019-06-10T19:31:19.527Z,64067.83
2019-06-10T19:33:45.784Z,64058.13
2019-06-10T19:36:12.655Z,64049.87
2019-06-10T19:38:39.925Z,64045.88
2019-06-10T19:41:06.147Z,64040.04
2019-06-10T19:43:34.622Z,64030.45
2019-06-10T19:46:02.970Z,64025.37
2019-06-10T19:48:28.659Z,64016.89
2019-06-10T19:50:54.797Z,64009.73
2019-06-10T19:53:22.191Z,64002.91
2019-06-10T19:55:48.561Z,63992.87
2019-06-10T19:58:14.814Z,63983.08
2019-06-10T20:00:41.590Z,63978.67
2019-06-10T20:03:09.380Z,63975.47
2019-06-10T20:05:36.209Z,63964.36
2019-06-10T20:08:02.981Z,63957.98
2019-06-10T20:10:29.482Z,63956.21
2019-06-10T20:12:55.618Z,63949.51
2019-06-10T20:15:23.653Z,63946.08
2019-06-10T20:17:52.328Z,63943.33
2019-06-10T20:20:17.947Z,63934.86
2019-06-10T20:22:46.474Z,63933.85
2019-06-10T20:25:12.536Z,63925.72
2019-06-10T20:27:39.710Z,63918.12
2019-06-10T20:30:21.518Z,63912.50
2019-06-10T20:32:37.278Z,63908.97
2019-06-10T20:35:06.948Z,63903.24
2019-06-10T20:37:33.298Z,63885.43
2019-06-10T20:39:59.508Z,63887.72
2019-06-10T20:42:25.770Z,63874.21
2019-06-10T20:44:51.886Z,63868.59
2019-06-10T20:47:18.138Z,63863.31
2019-06-10T20:49:46.028Z,63859.35
2019-06-10T20:52:14.872Z,63846.93
2019-06-10T20:54:42.970Z,63839.44
2019-06-10T20:57:08.592Z,63833.95
2019-06-10T20:59:34.755Z,63822.72
2019-06-10T21:02:03.068Z,63814.14
2019-06-10T21:04:29.012Z,63802.39
2019-06-10T21:06:55.853Z,63795.24
2019-06-10T21:09:24.182Z,63790.18
2019-06-10T21:11:51.885Z,63783.03
2019-06-10T21:14:18.460Z,63772.38
2019-06-10T21:16:44.711Z,63763.79
2019-06-10T21:19:10.951Z,63752.77
2019-06-10T21:21:37.071Z,63740.26
2019-06-10T21:24:03.334Z,63728.39
2019-06-10T21:26:29.562Z,63717.73
2019-06-10T21:28:55.836Z,63704.90
2019-06-10T21:31:21.969Z,63703.43
2019-06-10T21:33:49.511Z,63689.40
2019-06-10T21:36:16.250Z,63676.11
2019-06-10T21:38:44.932Z,63670.61
2019-06-10T21:41:12.347Z,63657.54
2019-06-10T21:43:41.450Z,63652.82
2019-06-10T21:46:06.600Z,63644.81
2019-06-10T21:48:32.838Z,63634.50
2019-06-10T21:50:59.092Z,63628.32
2019-06-10T21:53:25.213Z,63618.02
2019-06-10T21:55:54.889Z,63614.40
2019-06-10T21:58:22.358Z,63608.14
2019-06-10T22:01:03.271Z,63595.97
2019-06-10T22:03:18.060Z,63586.31
2019-06-10T22:05:45.842Z,63582.13
2019-06-10T22:08:12.600Z,63575.75
2019-06-10T22:10:38.808Z,63566.43
2019-06-10T22:13:04.941Z,63556.77
2019-06-10T22:15:33.289Z,63550.73
2019-06-10T22:17:59.099Z,63539.34
2019-06-10T22:20:25.341Z,63538.33
2019-06-10T22:22:53.667Z,63528.17
2019-06-10T22:25:22.246Z,63526.19
2019-06-10T22:27:48.159Z,63517.52
2019-06-10T22:30:14.577Z,63519.82
2019-06-10T22:32:42.964Z,63529.34
2019-06-10T22:35:08.923Z,63526.19
2019-06-10T22:37:35.156Z,63520.37
2019-06-10T22:40:03.302Z,63513.36
2019-06-10T22:42:29.626Z,63509.41
2019-06-10T22:44:57.840Z,63506.96
2019-06-10T22:47:23.901Z,63496.79
2019-06-10T22:49:50.137Z,63489.22
2019-06-10T22:52:16.300Z,63485.82
2019-06-10T22:54:43.127Z,63480.90
2019-06-10T22:57:09.320Z,63472.47
2019-06-10T22:59:35.557Z,63471.78
2019-06-10T23:02:03.015Z,63465.00
2019-06-10T23:04:29.341Z,63453.83
2019-06-10T23:06:56.535Z,63445.40
2019-06-10T23:09:23.723Z,63435.66
2019-06-10T23:11:51.101Z,63434.53
2019-06-10T23:14:18.016Z,63419.21
2019-06-10T23:16:44.399Z,63416.45
2019-06-10T23:19:12.946Z,63399.05
2019-06-10T23:21:38.762Z,63386.77
2019-06-10T23:24:05.005Z,63379.30
2019-06-10T23:26:33.215Z,63371.10
2019-06-10T23:29:00.235Z,63363.76
2019-06-10T23:31:26.599Z,63358.29
2019-06-10T23:33:55.990Z,63352.69
2019-06-10T23:36:23.355Z,63349.96
2019-06-10T23:38:49.146Z,63340.55
2019-06-10T23:41:15.534Z,63334.42
2019-06-10T23:43:42.325Z,63324.90
2019-06-10T23:46:08.681Z,63323.36
2019-06-10T23:48:35.007Z,63314.18
2019-06-10T23:51:04.520Z,63332.65
2019-06-10T23:53:29.191Z,63349.41
2019-06-10T23:55:56.211Z,63380.08
2019-06-10T23:58:24.996Z,63400.35
